createdAt,value
2022-10-06T00:00:31.214Z,101761.66
2022-10-06T00:02:35.854Z,101761.72
2022-10-06T00:04:39.343Z,101768.81
2022-10-06T00:06:42.739Z,101766.50
2022-10-06T00:08:47.472Z,101766.34
2022-10-06T00:10:50.845Z,101763.22
2022-10-06T00:12:54.317Z,101778.41
2022-10-06T00:14:57.630Z,101767.00
2022-10-06T00:17:02.533Z,101775.59
2022-10-06T00:19:06.150Z,101797.63
2022-10-06T00:21:09.539Z,101776.59
2022-10-06T00:23:12.910Z,101769.47
2022-10-06T00:25:19.534Z,101782.66
2022-10-06T00:27:22.846Z,101784.81
2022-10-06T00:29:26.179Z,101795.94
2022-10-06T00:31:29.663Z,101771.09
2022-10-06T00:33:34.385Z,101793.53
2022-10-06T00:35:37.775Z,101786.75
2022-10-06T00:37:41.111Z,101782.00
2022-10-06T00:39:44.488Z,101789.88
2022-10-06T00:41:47.900Z,101788.16
2022-10-06T00:43:53.287Z,101791.91
2022-10-06T00:45:56.751Z,101790.03
2022-10-06T00:48:05.540Z,101780.47
2022-10-06T00:50:12.778Z,101792.13
2022-10-06T00:52:19.779Z,101786.59
2022-10-06T00:54:23.143Z,101791.84
2022-10-06T00:56:27.614Z,101796.41
2022-10-06T00:58:31.723Z,101796.59
2022-10-06T01:00:35.381Z,101808.84
2022-10-06T01:02:43.598Z,101796.66
2022-10-06T01:04:50.968Z,101810.19
2022-10-06T01:06:58.664Z,101807.97
2022-10-06T01:09:02.042Z,101809.56
2022-10-06T01:11:05.377Z,101821.72
2022-10-06T01:13:13.269Z,101820.00
2022-10-06T01:15:17.558Z,101836.66
2022-10-06T01:17:26.310Z,101834.97
2022-10-06T01:19:40.556Z,101840.47
2022-10-06T01:21:48.499Z,101841.31
2022-10-06T01:23:53.684Z,101843.31
2022-10-06T01:25:58.581Z,101843.00
2022-10-06T01:28:03.910Z,101846.53
2022-10-06T01:30:10.417Z,101844.88
2022-10-06T01:32:15.783Z,101850.69
2022-10-06T01:34:19.273Z,101847.69
2022-10-06T01:36:23.176Z,101858.03
2022-10-06T01:38:28.564Z,101867.53
2022-10-06T01:40:38.669Z,101856.47
2022-10-06T01:42:42.064Z,101856.38
2022-10-06T01:44:45.437Z,101868.78
2022-10-06T01:46:49.538Z,101874.69
2022-10-06T01:48:53.419Z,101875.56
2022-10-06T01:50:56.722Z,101877.41
2022-10-06T01:53:00.085Z,101880.34
2022-10-06T01:55:03.643Z,101885.75
2022-10-06T01:57:09.531Z,101891.00
2022-10-06T01:59:14.281Z,101886.25
2022-10-06T02:01:18.121Z,101892.03
2022-10-06T02:03:21.682Z,101894.81
2022-10-06T02:05:24.996Z,101893.78
2022-10-06T02:07:29.820Z,101898.97
2022-10-06T02:09:33.195Z,101903.13
2022-10-06T02:11:40.987Z,101895.91
2022-10-06T02:13:45.821Z,101897.63
2022-10-06T02:15:49.275Z,101912.47
2022-10-06T02:17:52.776Z,101914.56
2022-10-06T02:19:56.582Z,101921.88
2022-10-06T02:21:59.927Z,101923.63
2022-10-06T02:24:03.306Z,101924.88
2022-10-06T02:26:07.453Z,101875.91
2022-10-06T02:28:11.838Z,101934.03
2022-10-06T02:30:17.539Z,101927.00
2022-10-06T02:32:22.904Z,101931.81
2022-10-06T02:34:26.705Z,101889.50
2022-10-06T02:36:30.452Z,101934.38
2022-10-06T02:38:34.211Z,101938.31
2022-10-06T02:40:38.699Z,101931.59
2022-10-06T02:42:42.062Z,101944.16
2022-10-06T02:44:45.792Z,101948.84
2022-10-06T02:46:50.644Z,101948.22
2022-10-06T02:48:54.621Z,101951.13
2022-10-06T02:50:59.116Z,101960.63
2022-10-06T02:53:02.463Z,101963.16
2022-10-06T02:55:08.009Z,101955.72
2022-10-06T02:57:11.290Z,101969.88
2022-10-06T02:59:15.441Z,101968.25
2022-10-06T03:01:21.786Z,101955.88
2022-10-06T03:03:26.529Z,101977.94
2022-10-06T03:05:30.436Z,101987.25
2022-10-06T03:07:33.949Z,101989.34
2022-10-06T03:09:37.335Z,101990.06
2022-10-06T03:11:43.029Z,101993.66
2022-10-06T03:13:52.495Z,101993.97
2022-10-06T03:15:55.835Z,101996.91
2022-10-06T03:17:59.451Z,101998.75
2022-10-06T03:20:04.464Z,102005.63
2022-10-06T03:22:10.500Z,102001.34
2022-10-06T03:24:20.209Z,102011.16
2022-10-06T03:26:31.980Z,102019.53
2022-10-06T03:28:35.812Z,102008.03
2022-10-06T03:30:39.299Z,102019.50
2022-10-06T03:32:42.688Z,102028.38
2022-10-06T03:34:47.704Z,102027.41
2022-10-06T03:36:53.494Z,102024.53
2022-10-06T03:38:59.797Z,102028.66
2022-10-06T03:41:05.417Z,102039.59
2022-10-06T03:43:10.676Z,102018.09
2022-10-06T03:45:14.200Z,102049.59
2022-10-06T03:47:19.119Z,102059.84
2022-10-06T03:49:23.309Z,102061.59
2022-10-06T03:51:29.694Z,102063.88
2022-10-06T03:53:36.136Z,102068.75
2022-10-06T03:55:39.745Z,102061.78
2022-10-06T03:57:43.083Z,102073.94
2022-10-06T03:59:46.847Z,102080.09
2022-10-06T04:01:52.944Z,102075.88
2022-10-06T04:04:02.545Z,102082.63
2022-10-06T04:06:08.306Z,102084.03
2022-10-06T04:08:11.621Z,102093.19
2022-10-06T04:10:16.415Z,102095.28
2022-10-06T04:12:19.837Z,102102.00
2022-10-06T04:14:23.155Z,102097.25
2022-10-06T04:16:29.489Z,102109.56
2022-10-06T04:18:33.380Z,102117.81
2022-10-06T04:20:37.302Z,102110.13
2022-10-06T04:22:40.963Z,102114.06
2022-10-06T04:24:44.689Z,102118.56
2022-10-06T04:26:50.079Z,102129.28
2022-10-06T04:28:55.071Z,102120.16
2022-10-06T04:30:58.990Z,102130.75
2022-10-06T04:33:02.427Z,102142.50
2022-10-06T04:35:06.621Z,102135.81
2022-10-06T04:37:10.744Z,102149.00
2022-10-06T04:39:15.208Z,102153.88
2022-10-06T04:41:21.759Z,102154.03
2022-10-06T04:43:27.895Z,102154.50
2022-10-06T04:45:31.383Z,102158.34
2022-10-06T04:47:34.974Z,102163.63
2022-10-06T04:49:38.396Z,102167.94
2022-10-06T04:51:41.721Z,102171.56
2022-10-06T04:53:46.024Z,102175.47
2022-10-06T04:55:59.764Z,102173.84
2022-10-06T04:58:03.425Z,102177.63
2022-10-06T05:00:25.151Z,102181.09
2022-10-06T05:02:30.025Z,102158.78
2022-10-06T05:04:34.139Z,102183.88
2022-10-06T05:06:39.726Z,102184.91
2022-10-06T05:08:43.251Z,102183.84
2022-10-06T05:10:46.703Z,102189.66
2022-10-06T05:12:50.103Z,102190.94
2022-10-06T05:14:53.446Z,102192.97
2022-10-06T05:16:58.164Z,102191.00
2022-10-06T05:19:02.305Z,102201.16
2022-10-06T05:21:08.279Z,102204.59
2022-10-06T05:23:11.598Z,102214.59
2022-10-06T05:25:14.996Z,102212.09
2022-10-06T05:27:18.397Z,102218.22
2022-10-06T05:29:21.710Z,102220.13
2022-10-06T05:31:27.855Z,102226.84
2022-10-06T05:33:35.482Z,102227.56
2022-10-06T05:35:39.810Z,102221.97
2022-10-06T05:37:43.151Z,102228.44
2022-10-06T05:39:46.666Z,102235.09
2022-10-06T05:41:50.140Z,102233.81
2022-10-06T05:43:54.020Z,102241.81
2022-10-06T05:45:58.764Z,102243.03
2022-10-06T05:48:02.337Z,102242.25
2022-10-06T05:50:08.132Z,102242.13
2022-10-06T05:52:11.680Z,102253.84
2022-10-06T05:54:15.230Z,102258.19
2022-10-06T05:56:22.433Z,102240.53
2022-10-06T05:58:25.767Z,102266.47
2022-10-06T06:00:29.092Z,102267.41
2022-10-06T06:02:32.514Z,102278.00
2022-10-06T06:04:35.903Z,102269.56
2022-10-06T06:06:42.758Z,102285.09
2022-10-06T06:08:53.692Z,102289.25
2022-10-06T06:11:05.513Z,102294.81
2022-10-06T06:13:08.870Z,102291.50
2022-10-06T06:15:36.803Z,102292.66
2022-10-06T06:17:40.122Z,102302.53
2022-10-06T06:19:43.627Z,102304.72
2022-10-06T06:21:48.656Z,102300.41
2022-10-06T06:23:51.948Z,102310.06
2022-10-06T06:26:02.420Z,102291.88
2022-10-06T06:28:07.132Z,102311.09
2022-10-06T06:30:11.695Z,102313.09
2022-10-06T06:32:16.422Z,102312.97
2022-10-06T06:34:21.295Z,102322.53
2022-10-06T06:36:26.833Z,102290.03
2022-10-06T06:38:32.983Z,102332.88
2022-10-06T06:40:41.356Z,102330.38
2022-10-06T06:42:44.820Z,102329.84
2022-10-06T06:44:54.196Z,102338.47
2022-10-06T06:47:11.877Z,102336.56
2022-10-06T06:49:15.446Z,102347.56
2022-10-06T06:51:24.177Z,102349.38
2022-10-06T06:53:27.788Z,102348.88
2022-10-06T06:55:35.639Z,102352.25
2022-10-06T06:57:38.976Z,102343.84
2022-10-06T06:59:43.328Z,102353.97
2022-10-06T07:01:48.842Z,102352.00
2022-10-06T07:03:59.611Z,102359.84
2022-10-06T07:06:09.841Z,102361.06
2022-10-06T07:08:15.961Z,102371.69
2022-10-06T07:10:19.838Z,102374.44
2022-10-06T07:12:25.446Z,102374.81
2022-10-06T07:14:34.170Z,102382.53
2022-10-06T07:16:57.061Z,102388.66
2022-10-06T07:19:24.502Z,102383.56
2022-10-06T07:21:46.212Z,102379.91
2022-10-06T07:24:18.287Z,102389.97
2022-10-06T07:26:21.729Z,102398.97
2022-10-06T07:28:30.596Z,102400.59
2022-10-06T07:30:39.814Z,102412.63
2022-10-06T07:32:51.333Z,102408.16
2022-10-06T07:34:55.138Z,102416.19
2022-10-06T07:37:02.724Z,102425.44
2022-10-06T07:39:10.466Z,102433.16
2022-10-06T07:41:19.355Z,102430.69
2022-10-06T07:43:33.614Z,102432.13
2022-10-06T07:45:41.412Z,102441.69
2022-10-06T07:47:58.884Z,102441.56
2022-10-06T07:50:02.713Z,102442.19
2022-10-06T07:52:06.375Z,102439.44
2022-10-06T07:54:09.862Z,102452.06
2022-10-06T07:56:35.791Z,102453.41
2022-10-06T07:58:40.726Z,102453.09
2022-10-06T08:00:44.452Z,102450.34
2022-10-06T08:02:47.874Z,102453.78
2022-10-06T08:04:51.496Z,102459.97
2022-10-06T08:06:58.468Z,102453.00
2022-10-06T08:09:01.881Z,102457.72
2022-10-06T08:11:08.175Z,102469.38
2022-10-06T08:13:11.665Z,102477.88
2022-10-06T08:15:16.505Z,102476.03
2022-10-06T08:17:19.858Z,102484.59
2022-10-06T08:19:23.116Z,102484.91
2022-10-06T08:21:28.872Z,102473.97
2022-10-06T08:23:32.671Z,102478.09
2022-10-06T08:25:42.584Z,102473.47
2022-10-06T08:27:49.011Z,102480.03
2022-10-06T08:29:56.383Z,102474.19
2022-10-06T08:32:01.753Z,102473.22
2022-10-06T08:34:11.819Z,102480.53
2022-10-06T08:36:17.825Z,102474.78
2022-10-06T08:38:21.777Z,102477.56
2022-10-06T08:40:26.907Z,102483.19
2022-10-06T08:42:38.202Z,102478.25
2022-10-06T08:44:45.533Z,102487.41
2022-10-06T08:46:54.988Z,102491.03
2022-10-06T08:48:59.831Z,102501.19
2022-10-06T08:51:18.616Z,102488.59
2022-10-06T08:53:29.045Z,102478.56
2022-10-06T08:55:38.545Z,102487.16
2022-10-06T08:57:51.111Z,102482.72
2022-10-06T08:59:54.640Z,102497.97
2022-10-06T09:01:58.265Z,102502.25
2022-10-06T09:04:07.248Z,102509.47
2022-10-06T09:06:23.194Z,102505.00
2022-10-06T09:08:39.693Z,102515.75
2022-10-06T09:10:52.078Z,102523.47
2022-10-06T09:12:58.650Z,102515.94
2022-10-06T09:15:16.399Z,102454.06
2022-10-06T09:17:26.176Z,102519.88
2022-10-06T09:19:38.545Z,102531.94
2022-10-06T09:21:46.498Z,102535.47
2022-10-06T09:23:56.969Z,102535.03
2022-10-06T09:26:01.246Z,102532.63
2022-10-06T09:28:09.475Z,102539.25
2022-10-06T09:30:13.463Z,102538.09
2022-10-06T09:32:17.799Z,102527.34
2022-10-06T09:34:27.035Z,102539.47
2022-10-06T09:36:32.330Z,102538.63
2022-10-06T09:38:48.255Z,102552.31
2022-10-06T09:40:53.714Z,102539.25
2022-10-06T09:42:57.263Z,102549.44
2022-10-06T09:45:02.581Z,102550.56
2022-10-06T09:47:25.146Z,102547.44
2022-10-06T09:49:31.418Z,102547.84
2022-10-06T09:51:36.444Z,102553.53
2022-10-06T09:53:40.181Z,102545.38
2022-10-06T09:55:54.629Z,102548.59
2022-10-06T09:57:58.905Z,102553.53
2022-10-06T10:00:02.994Z,102554.50
2022-10-06T10:02:24.843Z,102553.50
2022-10-06T10:04:31.287Z,102558.75
2022-10-06T10:06:36.144Z,102556.50
2022-10-06T10:08:39.550Z,102554.03
2022-10-06T10:10:42.965Z,102549.06
2022-10-06T10:12:51.648Z,102549.59
2022-10-06T10:14:57.461Z,102543.50
2022-10-06T10:17:10.468Z,102550.03
2022-10-06T10:19:24.963Z,102555.06
2022-10-06T10:21:30.895Z,102553.47
2022-10-06T10:23:39.290Z,102555.88
2022-10-06T10:26:09.048Z,102558.09
2022-10-06T10:28:24.694Z,102557.44
2022-10-06T10:30:28.460Z,102555.13
2022-10-06T10:32:46.472Z,102548.16
2022-10-06T10:35:00.762Z,102557.63
2022-10-06T10:37:10.414Z,102545.66
2022-10-06T10:39:21.903Z,102550.63
2022-10-06T10:41:28.411Z,102555.38
2022-10-06T10:43:35.041Z,102543.72
2022-10-06T10:45:44.850Z,102506.69
2022-10-06T10:47:50.167Z,102563.94
2022-10-06T10:50:00.092Z,102558.47
2022-10-06T10:52:10.572Z,102562.84
2022-10-06T10:54:19.717Z,102551.16
2022-10-06T10:56:26.808Z,102553.28
2022-10-06T10:58:34.872Z,102560.50
2022-10-06T11:00:44.013Z,102565.78
2022-10-06T11:02:47.940Z,102561.94
2022-10-06T11:04:53.921Z,102562.72
2022-10-06T11:07:11.048Z,102561.88
2022-10-06T11:09:19.209Z,102556.88
2022-10-06T11:11:36.678Z,102521.69
2022-10-06T11:13:44.945Z,102545.41
2022-10-06T11:16:11.982Z,102565.66
2022-10-06T11:18:25.739Z,102556.84
2022-10-06T11:20:45.919Z,102567.47
2022-10-06T11:22:57.864Z,102563.31
2022-10-06T11:25:13.681Z,102562.00
2022-10-06T11:27:27.207Z,102562.25
2022-10-06T11:29:40.761Z,102563.78
2022-10-06T11:31:54.667Z,102555.00
2022-10-06T11:34:01.671Z,102556.19
2022-10-06T11:36:09.338Z,102561.50
2022-10-06T11:38:23.430Z,102560.69
2022-10-06T11:40:42.276Z,102570.84
2022-10-06T11:42:51.670Z,102561.66
2022-10-06T11:45:00.866Z,102553.16
2022-10-06T11:47:09.072Z,102552.63
2022-10-06T11:49:39.400Z,102548.69
2022-10-06T11:51:42.738Z,102554.78
2022-10-06T11:53:46.349Z,102554.34
2022-10-06T11:56:40.988Z,102551.59
2022-10-06T11:59:13.970Z,102544.41
2022-10-06T12:01:51.840Z,102548.94
2022-10-06T12:04:12.969Z,102526.53
2022-10-06T12:07:06.872Z,102543.16
2022-10-06T12:09:52.471Z,102546.78
2022-10-06T12:11:58.852Z,102550.53
2022-10-06T12:15:06.452Z,102541.97
2022-10-06T12:19:08.692Z,102535.44
2022-10-06T12:21:23.951Z,102540.19
2022-10-06T12:23:42.372Z,102541.03
2022-10-06T12:25:54.348Z,102534.84
2022-10-06T12:28:10.976Z,102531.81
2022-10-06T12:30:24.713Z,102532.75
2022-10-06T12:32:49.468Z,102539.41
2022-10-06T12:35:18.031Z,102541.50
2022-10-06T12:37:41.212Z,102531.97
2022-10-06T12:39:44.583Z,102534.06
2022-10-06T12:41:58.818Z,102534.53
2022-10-06T12:44:05.320Z,102529.50
2022-10-06T12:46:16.584Z,102525.00
2022-10-06T12:48:24.737Z,102522.50
2022-10-06T12:50:29.110Z,102520.09
2022-10-06T12:52:48.054Z,102513.22
2022-10-06T12:55:04.176Z,102507.06
2022-10-06T12:57:18.102Z,102512.31
2022-10-06T12:59:26.967Z,102510.25
2022-10-06T13:01:31.102Z,102506.81
2022-10-06T13:03:35.703Z,102507.25
2022-10-06T13:05:39.081Z,102501.88
2022-10-06T13:07:57.527Z,102500.56
2022-10-06T13:10:19.117Z,102502.28
2022-10-06T13:12:31.110Z,102500.50
2022-10-06T13:14:36.080Z,102503.28
2022-10-06T13:16:41.909Z,102495.88
2022-10-06T13:18:45.510Z,102502.78
2022-10-06T13:20:50.522Z,102508.03
2022-10-06T13:23:03.160Z,102496.69
2022-10-06T13:25:12.917Z,102501.50
2022-10-06T13:27:18.637Z,102496.13
2022-10-06T13:29:25.300Z,102509.06
2022-10-06T13:31:31.459Z,102512.50
2022-10-06T13:33:40.376Z,102501.44
2022-10-06T13:35:44.057Z,102504.47
2022-10-06T13:37:47.762Z,102497.06
2022-10-06T13:39:51.093Z,102507.53
2022-10-06T13:41:57.212Z,102509.38
2022-10-06T13:44:03.282Z,102513.25
2022-10-06T13:46:09.568Z,102506.56
2022-10-06T13:48:18.029Z,102499.81
2022-10-06T13:50:21.560Z,102498.03
2022-10-06T13:52:34.077Z,102503.59
2022-10-06T13:54:41.842Z,102504.03
2022-10-06T13:56:45.547Z,102485.66
2022-10-06T13:58:48.906Z,102501.75
2022-10-06T14:00:56.248Z,102499.25
2022-10-06T14:03:10.591Z,102491.50
2022-10-06T14:05:31.436Z,102490.13
2022-10-06T14:07:34.842Z,102491.88
2022-10-06T14:09:38.226Z,102491.91
2022-10-06T14:11:43.436Z,102484.88
2022-10-06T14:13:54.370Z,102485.66
2022-10-06T14:16:00.029Z,102485.78
2022-10-06T14:18:06.080Z,102495.28
2022-10-06T14:20:43.399Z,102488.28
2022-10-06T14:22:46.759Z,102496.03
2022-10-06T14:24:52.283Z,102494.44
2022-10-06T14:27:01.898Z,102484.66
2022-10-06T14:29:05.665Z,102461.56
2022-10-06T14:31:14.428Z,102478.41
2022-10-06T14:33:18.303Z,102482.84
2022-10-06T14:35:21.584Z,102489.88
2022-10-06T14:37:26.497Z,102482.84
2022-10-06T14:39:29.788Z,102486.38
2022-10-06T14:41:33.705Z,102468.56
2022-10-06T14:43:36.997Z,102485.53
2022-10-06T14:45:43.789Z,102478.50
2022-10-06T14:47:47.556Z,102429.44
2022-10-06T14:49:51.364Z,102477.78
2022-10-06T14:51:55.828Z,102475.03
2022-10-06T14:54:01.253Z,102481.16
2022-10-06T14:56:06.395Z,102482.91
2022-10-06T14:58:09.783Z,102479.25
2022-10-06T15:00:14.547Z,102485.22
2022-10-06T15:02:20.355Z,102484.50
2022-10-06T15:04:26.501Z,102485.50
2022-10-06T15:06:47.877Z,102483.44
2022-10-06T15:08:52.023Z,102434.56
2022-10-06T15:10:56.689Z,102472.78
2022-10-06T15:13:00.661Z,102475.75
2022-10-06T15:15:06.263Z,102476.66
2022-10-06T15:17:09.616Z,102472.69
2022-10-06T15:19:13.672Z,102471.81
2022-10-06T15:21:18.460Z,102473.66
2022-10-06T15:23:21.816Z,102450.41
2022-10-06T15:25:42.643Z,102473.50
2022-10-06T15:28:05.037Z,102466.47
2022-10-06T15:30:11.204Z,102461.88
2022-10-06T15:32:15.526Z,102459.25
2022-10-06T15:34:20.528Z,102441.25
2022-10-06T15:36:25.573Z,102460.69
2022-10-06T15:38:28.876Z,102453.78
2022-10-06T15:40:32.184Z,102459.81
2022-10-06T15:42:35.535Z,102458.09
2022-10-06T15:44:40.349Z,102454.00
2022-10-06T15:46:45.596Z,102459.53
2022-10-06T15:48:49.018Z,102457.75
2022-10-06T15:50:52.370Z,102458.44
2022-10-06T15:52:55.840Z,102458.03
2022-10-06T15:54:59.155Z,102458.16
2022-10-06T15:57:05.598Z,102448.38
2022-10-06T15:59:09.828Z,102451.47
2022-10-06T16:01:38.773Z,102453.16
2022-10-06T16:03:44.255Z,102465.59
2022-10-06T16:05:51.602Z,102433.09
2022-10-06T16:07:54.859Z,102455.53
2022-10-06T16:09:58.261Z,102457.88
2022-10-06T16:12:03.475Z,102464.09
2022-10-06T16:14:07.538Z,102462.19
2022-10-06T16:16:11.194Z,102458.88
2022-10-06T16:18:15.979Z,102473.53
2022-10-06T16:20:19.714Z,102452.75
2022-10-06T16:22:23.062Z,102464.13
2022-10-06T16:24:26.445Z,102467.19
2022-10-06T16:26:29.917Z,102463.53
2022-10-06T16:28:33.980Z,102458.81
2022-10-06T16:30:37.361Z,102453.78
2022-10-06T16:32:41.007Z,102459.00
2022-10-06T16:34:50.262Z,102461.59
2022-10-06T16:36:53.652Z,102464.22
2022-10-06T16:38:57.408Z,102449.84
2022-10-06T16:41:02.549Z,102449.72
2022-10-06T16:43:05.843Z,102458.31
2022-10-06T16:45:09.797Z,102464.66
2022-10-06T16:47:13.092Z,102462.63
2022-10-06T16:49:16.475Z,102464.38
2022-10-06T16:51:23.339Z,102462.41
2022-10-06T16:53:26.882Z,102460.31
2022-10-06T16:55:30.308Z,102459.47
2022-10-06T16:57:33.615Z,102444.03
2022-10-06T16:59:37.162Z,102462.66
2022-10-06T17:01:40.583Z,102460.94
2022-10-06T17:03:44.283Z,102464.53
2022-10-06T17:05:47.704Z,102469.53
2022-10-06T17:07:56.949Z,102471.19
2022-10-06T17:10:22.140Z,102468.31
2022-10-06T17:12:25.670Z,102479.78
2022-10-06T17:14:30.930Z,102478.81
2022-10-06T17:16:36.957Z,102453.75
2022-10-06T17:18:40.456Z,102473.34
2022-10-06T17:20:43.824Z,102461.97
2022-10-06T17:22:47.327Z,102467.25
2022-10-06T17:24:52.035Z,102470.06
2022-10-06T17:26:55.828Z,102467.41
2022-10-06T17:29:00.996Z,102434.31
2022-10-06T17:31:04.343Z,102457.69
2022-10-06T17:33:07.769Z,102459.56
2022-10-06T17:35:11.151Z,102462.97
2022-10-06T17:37:14.490Z,102472.66
2022-10-06T17:39:19.315Z,102470.94
2022-10-06T17:41:29.676Z,102476.16
2022-10-06T17:43:36.290Z,102471.56
2022-10-06T17:45:40.156Z,102469.56
2022-10-06T17:47:43.693Z,102471.25
2022-10-06T17:49:47.079Z,102474.59
2022-10-06T17:51:51.544Z,102478.91
2022-10-06T17:53:57.203Z,102477.84
2022-10-06T17:56:06.639Z,102470.66
2022-10-06T17:58:15.193Z,102460.50
2022-10-06T18:00:21.208Z,102476.00
2022-10-06T18:02:24.599Z,102476.63
2022-10-06T18:04:28.746Z,102463.91
2022-10-06T18:06:35.304Z,102471.56
2022-10-06T18:08:39.526Z,102470.38
2022-10-06T18:11:06.032Z,102435.16
2022-10-06T18:13:10.715Z,102465.22
2022-10-06T18:15:14.441Z,102466.03
2022-10-06T18:17:20.161Z,102466.25
2022-10-06T18:19:26.328Z,102449.03
2022-10-06T18:21:37.273Z,102471.22
2022-10-06T18:23:42.692Z,102414.78
2022-10-06T18:25:46.675Z,102471.63
2022-10-06T18:27:49.967Z,102473.75
2022-10-06T18:29:54.687Z,102468.63
2022-10-06T18:32:09.397Z,102466.00
2022-10-06T18:36:42.945Z,102467.63
2022-10-06T18:38:46.988Z,102465.75
2022-10-06T18:40:58.019Z,102461.41
2022-10-06T18:43:01.571Z,102467.28
2022-10-06T18:45:25.380Z,102442.81
2022-10-06T18:47:46.658Z,102471.34
2022-10-06T18:49:50.234Z,102466.50
2022-10-06T18:51:58.354Z,102448.56
2022-10-06T18:54:04.313Z,102461.72
2022-10-06T18:56:07.811Z,102460.81
2022-10-06T18:58:11.119Z,102469.41
2022-10-06T19:00:17.362Z,102463.91
2022-10-06T19:02:20.799Z,102470.09
2022-10-06T19:04:25.088Z,102455.75
2022-10-06T19:06:30.092Z,102467.09
2022-10-06T19:08:34.072Z,102469.66
2022-10-06T19:10:57.368Z,102470.53
2022-10-06T19:13:01.101Z,102475.19
2022-10-06T19:15:05.231Z,102460.28
2022-10-06T19:17:13.098Z,102465.34
2022-10-06T19:19:19.312Z,102459.69
2022-10-06T19:21:22.762Z,102476.34
2022-10-06T19:23:26.096Z,102471.56
2022-10-06T19:25:29.409Z,102474.63
2022-10-06T19:27:33.288Z,102473.69
2022-10-06T19:29:37.781Z,102480.00
2022-10-06T19:31:43.492Z,102473.84
2022-10-06T19:33:49.114Z,102445.03
2022-10-06T19:35:53.368Z,102471.75
2022-10-06T19:37:56.747Z,102468.94
2022-10-06T19:40:01.379Z,102472.53
2022-10-06T19:42:22.195Z,102464.69
2022-10-06T19:44:25.972Z,102483.16
2022-10-06T19:46:29.539Z,102471.84
2022-10-06T19:48:33.078Z,102473.94
2022-10-06T19:50:38.908Z,102473.78
2022-10-06T19:52:42.950Z,102470.41
2022-10-06T19:54:46.326Z,102474.84
2022-10-06T19:56:49.935Z,102474.81
2022-10-06T19:58:53.648Z,102471.16
2022-10-06T20:00:57.098Z,102467.88
2022-10-06T20:03:00.761Z,102473.81
2022-10-06T20:05:04.200Z,102467.28
2022-10-06T20:07:09.303Z,102475.81
2022-10-06T20:09:14.594Z,102455.97
2022-10-06T20:11:20.857Z,102481.63
2022-10-06T20:13:24.232Z,102473.69
2022-10-06T20:15:27.685Z,102472.66
2022-10-06T20:17:31.029Z,102474.88
2022-10-06T20:19:35.264Z,102472.56
2022-10-06T20:21:39.845Z,102478.25
2022-10-06T20:23:48.111Z,102478.66
2022-10-06T20:25:51.673Z,102477.00
2022-10-06T20:27:55.002Z,102480.81
2022-10-06T20:29:59.010Z,102480.66
2022-10-06T20:32:02.335Z,102480.13
2022-10-06T20:34:07.781Z,102496.88
2022-10-06T20:36:11.482Z,102490.97
2022-10-06T20:38:14.816Z,102487.97
2022-10-06T20:40:37.115Z,102492.69
2022-10-06T20:42:44.709Z,102488.63
2022-10-06T20:44:48.652Z,102492.13
2022-10-06T20:46:52.311Z,102486.81
2022-10-06T20:48:55.700Z,102489.78
2022-10-06T20:50:59.369Z,102493.09
2022-10-06T20:53:02.732Z,102485.19
2022-10-06T20:55:07.507Z,102489.28
2022-10-06T20:57:12.984Z,102490.31
2022-10-06T20:59:16.419Z,102484.59
2022-10-06T21:01:22.095Z,102487.09
2022-10-06T21:03:25.484Z,102477.50
2022-10-06T21:05:32.986Z,102479.63
2022-10-06T21:07:42.346Z,102481.31
2022-10-06T21:09:51.233Z,102481.03
2022-10-06T21:11:56.328Z,102466.97
2022-10-06T21:14:01.819Z,102479.84
2022-10-06T21:16:05.985Z,102449.06
2022-10-06T21:18:09.350Z,102469.53
2022-10-06T21:20:12.698Z,102473.94
2022-10-06T21:22:16.392Z,102468.66
2022-10-06T21:24:20.367Z,102461.91
2022-10-06T21:26:27.013Z,102465.56
2022-10-06T21:28:30.557Z,102470.38
2022-10-06T21:30:35.729Z,102465.28
2022-10-06T21:32:39.210Z,102466.91
2022-10-06T21:34:42.502Z,102458.75
2022-10-06T21:36:45.869Z,102461.16
2022-10-06T21:38:51.214Z,102458.28
2022-10-06T21:40:54.613Z,102464.16
2022-10-06T21:42:57.963Z,102461.03
2022-10-06T21:45:01.338Z,102451.16
2022-10-06T21:47:06.302Z,102452.50
2022-10-06T21:49:12.055Z,102448.56
2022-10-06T21:51:15.394Z,102445.41
2022-10-06T21:53:18.895Z,102443.69
2022-10-06T21:55:22.224Z,102443.31
2022-10-06T21:57:25.521Z,102450.31
2022-10-06T21:59:28.840Z,102446.28
2022-10-06T22:01:34.649Z,102446.50
2022-10-06T22:03:39.987Z,102448.47
2022-10-06T22:05:43.283Z,102438.22
2022-10-06T22:07:46.824Z,102429.66
2022-10-06T22:09:50.299Z,102440.09
2022-10-06T22:11:53.619Z,102434.41
2022-10-06T22:13:59.260Z,102428.81
2022-10-06T22:16:03.883Z,102436.50
2022-10-06T22:18:07.218Z,102426.41
2022-10-06T22:20:12.019Z,102430.50
2022-10-06T22:22:15.406Z,102430.97
2022-10-06T22:24:20.698Z,102425.44
2022-10-06T22:26:25.067Z,102422.97
2022-10-06T22:28:28.587Z,102428.00
2022-10-06T22:30:31.982Z,102428.09
2022-10-06T22:32:35.246Z,102421.47
2022-10-06T22:34:38.639Z,102417.03
2022-10-06T22:36:43.368Z,102403.16
2022-10-06T22:38:46.825Z,102413.72
2022-10-06T22:40:50.127Z,102414.19
2022-10-06T22:42:53.436Z,102403.56
2022-10-06T22:44:56.738Z,102406.09
2022-10-06T22:47:00.270Z,102403.81
2022-10-06T22:49:04.552Z,102399.00
2022-10-06T22:51:08.065Z,102401.31
2022-10-06T22:53:12.697Z,102408.25
2022-10-06T22:55:16.167Z,102403.09
2022-10-06T22:57:19.494Z,102393.81
2022-10-06T22:59:22.784Z,102391.59
2022-10-06T23:01:26.958Z,102389.88
2022-10-06T23:03:30.278Z,102387.41
2022-10-06T23:05:33.914Z,102378.75
2022-10-06T23:07:37.184Z,102392.56
2022-10-06T23:09:42.102Z,102368.66
2022-10-06T23:11:45.428Z,102383.59
2022-10-06T23:13:50.243Z,102384.66
2022-10-06T23:16:06.494Z,102378.38
2022-10-06T23:18:10.814Z,102368.44
2022-10-06T23:20:14.664Z,102367.78
2022-10-06T23:22:17.966Z,102367.00
2022-10-06T23:24:21.288Z,102365.91
2022-10-06T23:26:26.113Z,102367.91
2022-10-06T23:28:29.470Z,102364.41
2022-10-06T23:30:35.466Z,102368.31
2022-10-06T23:32:40.631Z,102358.22
2022-10-06T23:34:43.964Z,102362.44
2022-10-06T23:36:47.244Z,102360.88
2022-10-06T23:38:50.654Z,102361.59
2022-10-06T23:40:54.025Z,102353.72
2022-10-06T23:42:59.064Z,102354.47
2022-10-06T23:45:02.419Z,102348.03
2022-10-06T23:47:06.187Z,102358.72
2022-10-06T23:49:09.530Z,102352.31
2022-10-06T23:51:15.138Z,102347.75
2022-10-06T23:53:18.441Z,102358.72
2022-10-06T23:55:21.794Z,102355.38
2022-10-06T23:57:25.182Z,102352.16
2022-10-06T23:59:29.920Z,102354.09
